Time;durP1;ratioP1;P1;durP2;ratioP2;P2;SDS_P1;SDS_P2;PMS_P1;PMS_P2;Temp;Humidity;BMP_temperature;BMP_pressure;BME280_temperature;BME280_humidity;BME280_pressure;Samples;Min_cycle;Max_cycle;Signal;HPM_P1;HPM_P2
2022/07/23 00:00:58;;;;;;;37.60;21.13;;;;;;;;;;4971628;28;20270;-68
2022/07/23 00:03:23;;;;;;;42.43;21.90;;;;;;;;;;4971404;28;20286;-68
2022/07/23 00:05:48;;;;;;;38.23;21.53;;;;;;;;;;4970956;28;20286;-68
2022/07/23 00:08:14;;;;;;;39.63;21.50;;;;;;;;;;4970957;28;20687;-68
2022/07/23 00:10:39;;;;;;;40.47;21.53;;;;;;;;;;4972595;28;20365;-68
2022/07/23 00:13:04;;;;;;;42.45;21.77;;;;;;;;;;4971262;28;20038;-68
2022/07/23 00:15:29;;;;;;;45.10;21.80;;;;;;;;;;4972052;28;20053;-67
2022/07/23 00:17:54;;;;;;;46.25;23.77;;;;;;;;;;4970657;28;20274;-67
2022/07/23 00:20:20;;;;;;;46.23;26.43;;;;;;;;;;4972552;28;20073;-67
2022/07/23 00:22:46;;;;;;;47.93;25.50;;;;;;;;;;4971546;28;20617;-67
2022/07/23 00:25:11;;;;;;;52.17;24.75;;;;;;;;;;4971377;28;20332;-67
2022/07/23 00:27:36;;;;;;;53.90;27.77;;;;;;;;;;4971814;28;20037;-67
2022/07/23 00:30:01;;;;;;;46.70;25.73;;;;;;;;;;4971446;28;20270;-67
2022/07/23 00:32:26;;;;;;;52.87;27.43;;;;;;;;;;4972906;28;20123;-67
2022/07/23 00:34:51;;;;;;;54.77;27.57;;;;;;;;;;4971285;28;20278;-67
2022/07/23 00:37:17;;;;;;;48.90;26.63;;;;;;;;;;4971873;28;20792;-67
2022/07/23 00:39:42;;;;;;;52.90;27.10;;;;;;;;;;4971205;28;20286;-68
2022/07/23 00:42:07;;;;;;;56.75;27.10;;;;;;;;;;4971567;28;20277;-67
2022/07/23 00:44:32;;;;;;;55.70;27.37;;;;;;;;;;4971021;28;20416;-68
2022/07/23 00:46:58;;;;;;;61.25;28.17;;;;;;;;;;4971130;28;20018;-68
2022/07/23 00:49:24;;;;;;;51.50;26.67;;;;;;;;;;4970013;28;20109;-68
2022/07/23 00:51:50;;;;;;;51.60;25.90;;;;;;;;;;4970043;28;20023;-68
2022/07/23 00:54:16;;;;;;;54.40;25.48;;;;;;;;;;4971265;28;20034;-68
2022/07/23 00:56:42;;;;;;;53.05;25.30;;;;;;;;;;4970701;28;20037;-68
2022/07/23 00:59:08;;;;;;;50.70;25.55;;;;;;;;;;4969831;28;20034;-67
2022/07/23 01:01:33;;;;;;;49.65;25.83;;;;;;;;;;4970489;28;20031;-68
2022/07/23 01:03:58;;;;;;;49.47;23.23;;;;;;;;;;4970689;28;20122;-68
2022/07/23 01:06:23;;;;;;;51.92;24.90;;;;;;;;;;4969645;28;20282;-67
2022/07/23 01:08:49;;;;;;;47.03;24.40;;;;;;;;;;4969740;28;20019;-68
2022/07/23 01:11:14;;;;;;;43.60;22.73;;;;;;;;;;4969120;28;20274;-68
2022/07/23 01:13:42;;;;;;;39.87;21.40;;;;;;;;;;4971054;28;20312;-67
2022/07/23 01:16:08;;;;;;;44.83;21.13;;;;;;;;;;4970569;28;20277;-68
2022/07/23 01:18:33;;;;;;;43.22;22.83;;;;;;;;;;4970768;28;20038;-68
2022/07/23 01:20:58;;;;;;;45.10;22.33;;;;;;;;;;4968913;28;20041;-68
2022/07/23 01:23:23;;;;;;;48.90;22.93;;;;;;;;;;4971399;28;20026;-67
2022/07/23 01:25:51;;;;;;;53.27;23.50;;;;;;;;;;4969999;28;20778;-67
2022/07/23 01:28:16;;;;;;;55.65;22.92;;;;;;;;;;4965344;28;20306;-67
2022/07/23 01:30:42;;;;;;;49.37;23.87;;;;;;;;;;4970557;28;20518;-67
2022/07/23 01:33:07;;;;;;;49.07;24.73;;;;;;;;;;4970892;28;20285;-67
2022/07/23 01:35:33;;;;;;;48.25;25.70;;;;;;;;;;4968482;28;20274;-67
2022/07/23 01:37:58;;;;;;;63.33;28.57;;;;;;;;;;4972324;28;20105;-67
2022/07/23 01:40:23;;;;;;;51.28;25.08;;;;;;;;;;4969557;28;20277;-67
2022/07/23 01:42:49;;;;;;;51.92;25.17;;;;;;;;;;4971212;28;20113;-67
2022/07/23 01:45:14;;;;;;;56.60;24.52;;;;;;;;;;4968392;28;20046;-67
2022/07/23 01:47:39;;;;;;;54.08;25.02;;;;;;;;;;4969047;28;20483;-67
2022/07/23 01:50:05;;;;;;;59.05;25.13;;;;;;;;;;4970100;28;20398;-67
2022/07/23 01:52:30;;;;;;;52.42;24.52;;;;;;;;;;4971190;28;20033;-67
2022/07/23 01:54:55;;;;;;;51.23;24.27;;;;;;;;;;4969821;28;20082;-67
2022/07/23 01:57:20;;;;;;;54.57;25.07;;;;;;;;;;4969560;28;20771;-67
2022/07/23 01:59:45;;;;;;;55.50;23.93;;;;;;;;;;4969869;28;20270;-67
2022/07/23 02:02:11;;;;;;;48.35;24.75;;;;;;;;;;4971209;28;20346;-67
2022/07/23 02:04:36;;;;;;;50.85;24.67;;;;;;;;;;4967893;28;20101;-67
2022/07/23 02:07:02;;;;;;;61.75;26.70;;;;;;;;;;4968288;28;20015;-67
2022/07/23 02:09:27;;;;;;;59.92;25.85;;;;;;;;;;4969288;28;20061;-67
2022/07/23 02:11:52;;;;;;;52.03;24.40;;;;;;;;;;4970368;28;20019;-67
2022/07/23 02:14:17;;;;;;;58.70;26.27;;;;;;;;;;4970656;28;20493;-67
2022/07/23 02:16:42;;;;;;;52.80;25.80;;;;;;;;;;4969472;28;20278;-67
2022/07/23 02:19:07;;;;;;;56.37;27.10;;;;;;;;;;4969193;28;20038;-67
2022/07/23 02:21:33;;;;;;;51.77;27.10;;;;;;;;;;4969722;28;20739;-67
2022/07/23 02:23:58;;;;;;;58.33;26.33;;;;;;;;;;4970255;28;20273;-67
2022/07/23 02:26:23;;;;;;;57.13;25.42;;;;;;;;;;4969462;28;20106;-67
2022/07/23 02:28:49;;;;;;;58.43;27.43;;;;;;;;;;4968700;28;20455;-67
2022/07/23 02:31:14;;;;;;;53.95;25.85;;;;;;;;;;4970035;28;20282;-67
2022/07/23 02:33:39;;;;;;;63.40;25.25;;;;;;;;;;4969154;28;20025;-67
2022/07/23 02:36:04;;;;;;;48.95;26.15;;;;;;;;;;4968982;28;20138;-66
2022/07/23 02:38:30;;;;;;;60.08;25.70;;;;;;;;;;4970313;28;20662;-67
2022/07/23 02:40:55;;;;;;;50.05;24.20;;;;;;;;;;4969063;28;20038;-67
2022/07/23 02:43:20;;;;;;;56.73;25.47;;;;;;;;;;4970388;28;20041;-67
2022/07/23 02:45:45;;;;;;;51.77;24.87;;;;;;;;;;4966864;28;20770;-67
2022/07/23 02:48:12;;;;;;;52.20;25.73;;;;;;;;;;4970552;28;20337;-67
2022/07/23 02:50:37;;;;;;;59.92;26.92;;;;;;;;;;4970074;28;20333;-67
2022/07/23 02:53:02;;;;;;;57.58;26.08;;;;;;;;;;4972203;28;20022;-67
2022/07/23 02:55:28;;;;;;;56.37;24.70;;;;;;;;;;4967428;28;20033;-67
2022/07/23 02:57:53;;;;;;;59.58;24.23;;;;;;;;;;4973480;28;20687;-67
2022/07/23 03:00:18;;;;;;;51.03;24.67;;;;;;;;;;4971606;28;20472;-67
2022/07/23 03:02:43;;;;;;;63.40;25.55;;;;;;;;;;4973964;28;20286;-67
2022/07/23 03:05:08;;;;;;;52.60;24.02;;;;;;;;;;4971983;28;20026;-68
2022/07/23 03:07:34;;;;;;;53.10;25.35;;;;;;;;;;4972577;28;20033;-68
2022/07/23 03:09:59;;;;;;;54.65;25.08;;;;;;;;;;4972518;28;20058;-68
2022/07/23 03:12:24;;;;;;;53.87;24.43;;;;;;;;;;4973913;28;20479;-68
2022/07/23 03:14:49;;;;;;;50.40;24.00;;;;;;;;;;4974151;28;20285;-68
2022/07/23 03:17:15;;;;;;;57.20;26.13;;;;;;;;;;4972811;28;20080;-68
2022/07/23 03:19:40;;;;;;;57.35;27.08;;;;;;;;;;4971913;28;20018;-68
2022/07/23 03:22:06;;;;;;;49.30;23.77;;;;;;;;;;4973378;28;20067;-68
2022/07/23 03:27:14;;;;;;;51.15;25.17;;;;;;;;;;4971417;28;20403;-68
2022/07/23 03:29:40;;;;;;;57.43;25.80;;;;;;;;;;4970682;28;20015;-67
2022/07/23 03:32:05;;;;;;;56.90;23.85;;;;;;;;;;4972319;28;20262;-68
2022/07/23 03:34:30;;;;;;;63.63;25.33;;;;;;;;;;4972924;28;20023;-68
2022/07/23 03:36:56;;;;;;;51.57;25.70;;;;;;;;;;4971770;28;20039;-67
2022/07/23 03:39:21;;;;;;;55.00;24.30;;;;;;;;;;4972043;28;20889;-67
2022/07/23 03:41:46;;;;;;;48.97;23.92;;;;;;;;;;4971164;28;20274;-67
2022/07/23 03:44:11;;;;;;;54.73;24.97;;;;;;;;;;4972322;28;20029;-67
2022/07/23 03:46:36;;;;;;;46.97;24.60;;;;;;;;;;4972249;28;20270;-67
2022/07/23 03:49:01;;;;;;;57.13;24.60;;;;;;;;;;4972502;28;20022;-67
2022/07/23 03:51:27;;;;;;;47.97;21.90;;;;;;;;;;4972377;28;20293;-67
2022/07/23 03:53:52;;;;;;;59.97;26.50;;;;;;;;;;4972560;28;20270;-67
2022/07/23 03:56:17;;;;;;;51.63;23.87;;;;;;;;;;4971265;28;20332;-67
2022/07/23 03:58:42;;;;;;;51.37;25.57;;;;;;;;;;4972243;28;20027;-67
2022/07/23 04:01:07;;;;;;;46.70;24.17;;;;;;;;;;4973054;28;20454;-67
2022/07/23 04:03:32;;;;;;;54.58;23.88;;;;;;;;;;4971152;28;20754;-67
2022/07/23 04:05:58;;;;;;;60.97;25.60;;;;;;;;;;4969232;28;20403;-67
2022/07/23 04:08:23;;;;;;;52.97;24.70;;;;;;;;;;4972869;28;20278;-67
2022/07/23 04:10:48;;;;;;;50.77;23.80;;;;;;;;;;4971812;28;20270;-67
2022/07/23 04:13:13;;;;;;;53.17;25.30;;;;;;;;;;4970084;28;20361;-67
2022/07/23 04:15:38;;;;;;;50.60;23.93;;;;;;;;;;4970309;28;20035;-67
2022/07/23 04:18:04;;;;;;;54.33;23.85;;;;;;;;;;4973046;28;20417;-67
2022/07/23 04:20:29;;;;;;;50.90;23.27;;;;;;;;;;4971857;28;20018;-67
2022/07/23 04:22:54;;;;;;;51.58;24.15;;;;;;;;;;4972736;28;20464;-67
2022/07/23 04:25:19;;;;;;;60.03;24.13;;;;;;;;;;4971612;28;20027;-67
2022/07/23 04:27:44;;;;;;;53.45;23.73;;;;;;;;;;4995769;23;20349;-90
2022/07/23 04:30:10;;;;;;;55.88;24.30;;;;;;;;;;4961110;28;20031;-90
2022/07/23 04:32:35;;;;;;;47.85;23.30;;;;;;;;;;4972621;28;20015;-91
2022/07/23 04:35:00;;;;;;;54.90;23.50;;;;;;;;;;4963494;28;20052;-90
2022/07/23 04:37:26;;;;;;;49.47;24.50;;;;;;;;;;4949020;28;20274;-89
2022/07/23 04:39:51;;;;;;;56.60;23.38;;;;;;;;;;4953920;28;20039;-90
2022/07/23 04:42:16;;;;;;;56.08;23.85;;;;;;;;;;4949851;28;20023;-89
2022/07/23 04:44:41;;;;;;;49.30;22.90;;;;;;;;;;4950365;28;20067;-90
2022/07/23 04:47:07;;;;;;;47.85;21.85;;;;;;;;;;4982602;28;20047;-90
2022/07/23 04:49:32;;;;;;;49.83;22.15;;;;;;;;;;4949680;28;20384;-90
2022/07/23 04:51:57;;;;;;;57.70;23.27;;;;;;;;;;4954228;28;20387;-90
2022/07/23 04:54:25;;;;;;;49.13;22.23;;;;;;;;;;4950704;28;20503;-89
2022/07/23 04:56:53;;;;;;;56.88;23.67;;;;;;;;;;4949347;28;20281;-89
2022/07/23 04:59:22;;;;;;;51.80;21.48;;;;;;;;;;4947567;28;20026;-90
2022/07/23 05:01:47;;;;;;;44.67;21.65;;;;;;;;;;4949409;28;20026;-90
2022/07/23 05:04:13;;;;;;;50.83;22.63;;;;;;;;;;4948242;28;20094;-89
2022/07/23 05:06:38;;;;;;;52.55;22.02;;;;;;;;;;4947741;28;20114;-89
2022/07/23 05:09:03;;;;;;;47.30;21.80;;;;;;;;;;4950307;28;20015;-88
2022/07/23 05:11:29;;;;;;;45.03;20.83;;;;;;;;;;4953498;28;20031;-89
2022/07/23 05:16:59;;;;;;;44.47;20.02;;;;;;;;;;4994238;23;20049;-69
2022/07/23 05:19:24;;;;;;;48.58;20.73;;;;;;;;;;4984443;28;20023;-69
2022/07/23 05:21:49;;;;;;;42.20;20.57;;;;;;;;;;4988567;28;20065;-69
2022/07/23 05:24:14;;;;;;;44.67;20.10;;;;;;;;;;4986460;28;20265;-69
2022/07/23 05:26:39;;;;;;;43.97;20.52;;;;;;;;;;4987272;28;20030;-69
2022/07/23 05:29:05;;;;;;;46.17;21.03;;;;;;;;;;4985944;28;20022;-69
2022/07/23 05:31:30;;;;;;;38.20;20.38;;;;;;;;;;4986655;28;20328;-69
2022/07/23 05:33:55;;;;;;;35.67;19.13;;;;;;;;;;4986213;28;20053;-69
2022/07/23 05:36:20;;;;;;;46.70;20.77;;;;;;;;;;4985947;28;20380;-69
2022/07/23 05:38:45;;;;;;;52.90;20.87;;;;;;;;;;4985462;28;20285;-69
2022/07/23 05:41:11;;;;;;;41.15;20.25;;;;;;;;;;4987403;28;20339;-69
2022/07/23 05:43:36;;;;;;;49.72;21.85;;;;;;;;;;4984204;28;20069;-69
2022/07/23 05:46:01;;;;;;;52.43;21.07;;;;;;;;;;4985730;28;20030;-69
2022/07/23 05:48:26;;;;;;;42.70;20.30;;;;;;;;;;4985413;28;20031;-69
2022/07/23 05:50:51;;;;;;;41.57;20.30;;;;;;;;;;4986537;28;20383;-69
2022/07/23 05:53:16;;;;;;;41.67;20.57;;;;;;;;;;4985931;28;20401;-70
2022/07/23 05:55:42;;;;;;;50.67;19.95;;;;;;;;;;4983169;28;20273;-69
2022/07/23 05:58:08;;;;;;;46.77;21.17;;;;;;;;;;4987010;28;20018;-69
2022/07/23 06:00:33;;;;;;;41.00;20.33;;;;;;;;;;4986340;28;20281;-69
2022/07/23 06:02:59;;;;;;;50.57;20.70;;;;;;;;;;4986941;28;20209;-69
2022/07/23 06:05:24;;;;;;;46.20;20.33;;;;;;;;;;4985726;28;20290;-69
2022/07/23 06:07:50;;;;;;;43.92;21.05;;;;;;;;;;4986124;28;20022;-69
2022/07/23 06:10:16;;;;;;;47.47;19.17;;;;;;;;;;4982150;28;20026;-69
2022/07/23 06:12:41;;;;;;;44.67;22.13;;;;;;;;;;4988805;28;20045;-69
2022/07/23 06:15:07;;;;;;;42.45;20.35;;;;;;;;;;4986054;28;20105;-69
2022/07/23 06:17:32;;;;;;;41.13;19.13;;;;;;;;;;4987181;28;20026;-69
2022/07/23 06:19:57;;;;;;;43.57;20.30;;;;;;;;;;4988194;28;20132;-69
2022/07/23 06:22:22;;;;;;;50.23;21.90;;;;;;;;;;4986903;28;20278;-69
2022/07/23 06:24:48;;;;;;;37.83;18.87;;;;;;;;;;4988497;28;20034;-70
2022/07/23 06:27:13;;;;;;;44.17;20.85;;;;;;;;;;4993538;28;20281;-69
2022/07/23 06:29:40;;;;;;;38.85;20.58;;;;;;;;;;4993338;28;20167;-69
2022/07/23 06:32:05;;;;;;;37.63;19.30;;;;;;;;;;4991559;28;20109;-69
2022/07/23 06:34:31;;;;;;;41.85;20.60;;;;;;;;;;4991378;28;20015;-69
2022/07/23 06:36:56;;;;;;;44.07;19.77;;;;;;;;;;4989877;28;20018;-69
2022/07/23 06:39:21;;;;;;;46.40;20.48;;;;;;;;;;4989601;28;20337;-69
2022/07/23 06:41:46;;;;;;;41.20;20.08;;;;;;;;;;4993811;28;20096;-69
2022/07/23 06:44:12;;;;;;;43.13;21.05;;;;;;;;;;4995290;28;20021;-69
2022/07/23 06:46:37;;;;;;;41.10;20.33;;;;;;;;;;4993368;28;20038;-69
2022/07/23 06:49:03;;;;;;;43.87;20.27;;;;;;;;;;4997390;28;20284;-69
2022/07/23 06:51:29;;;;;;;36.65;18.52;;;;;;;;;;4996683;28;20749;-69
2022/07/23 06:53:54;;;;;;;39.22;17.83;;;;;;;;;;4994659;28;20093;-70
2022/07/23 06:56:19;;;;;;;30.30;16.07;;;;;;;;;;4991677;28;20468;-69
2022/07/23 06:58:44;;;;;;;32.28;17.65;;;;;;;;;;4991139;28;20324;-70
2022/07/23 07:01:09;;;;;;;33.03;15.93;;;;;;;;;;4995876;28;20026;-70
2022/07/23 07:03:35;;;;;;;27.67;15.53;;;;;;;;;;4987683;28;20458;-70
2022/07/23 07:06:00;;;;;;;26.67;14.27;;;;;;;;;;4990766;28;20277;-70
2022/07/23 07:08:25;;;;;;;29.33;15.02;;;;;;;;;;4989289;28;20158;-70
2022/07/23 07:10:51;;;;;;;28.38;15.45;;;;;;;;;;4993511;28;20023;-70
2022/07/23 07:13:16;;;;;;;31.40;15.70;;;;;;;;;;4991129;28;20025;-70
2022/07/23 07:15:41;;;;;;;26.13;14.50;;;;;;;;;;4993822;28;20053;-70
2022/07/23 07:18:06;;;;;;;27.52;16.45;;;;;;;;;;4993127;28;20050;-69
2022/07/23 07:20:31;;;;;;;31.10;13.13;;;;;;;;;;4992526;28;20034;-69
2022/07/23 07:22:57;;;;;;;24.10;13.80;;;;;;;;;;4991376;28;20320;-69
2022/07/23 07:25:22;;;;;;;26.92;13.77;;;;;;;;;;4992830;28;20026;-70
2022/07/23 07:27:47;;;;;;;20.67;11.77;;;;;;;;;;4991477;28;20045;-69
2022/07/23 07:30:12;;;;;;;28.15;13.07;;;;;;;;;;4991854;28;20443;-70
2022/07/23 07:32:38;;;;;;;28.17;13.63;;;;;;;;;;4992656;28;20398;-70
2022/07/23 07:35:04;;;;;;;24.52;12.02;;;;;;;;;;4995157;28;20437;-70
2022/07/23 07:37:29;;;;;;;19.27;12.00;;;;;;;;;;4990227;28;20372;-70
2022/07/23 07:39:54;;;;;;;28.02;14.30;;;;;;;;;;4993520;28;20157;-70
2022/07/23 07:42:19;;;;;;;22.70;12.90;;;;;;;;;;4992316;28;20034;-68
2022/07/23 07:44:45;;;;;;;21.13;12.30;;;;;;;;;;4992922;28;20471;-68
2022/07/23 07:47:10;;;;;;;28.20;13.03;;;;;;;;;;4992819;28;20339;-69
2022/07/23 07:49:35;;;;;;;20.77;11.93;;;;;;;;;;4988971;28;20023;-69
2022/07/23 07:52:00;;;;;;;22.07;13.17;;;;;;;;;;4984345;28;20105;-69
2022/07/23 07:54:25;;;;;;;18.40;11.30;;;;;;;;;;4986840;28;20498;-68
2022/07/23 07:56:51;;;;;;;20.37;12.23;;;;;;;;;;4987100;28;20281;-69
2022/07/23 07:59:16;;;;;;;25.08;12.38;;;;;;;;;;4985393;28;20278;-69
2022/07/23 08:01:41;;;;;;;26.00;13.27;;;;;;;;;;4984015;28;20026;-69
2022/07/23 08:04:06;;;;;;;25.27;13.87;;;;;;;;;;4985323;28;20113;-69
2022/07/23 08:06:31;;;;;;;23.63;13.27;;;;;;;;;;4983046;28;20281;-69
2022/07/23 08:08:56;;;;;;;25.63;12.73;;;;;;;;;;4990488;28;20077;-69
2022/07/23 08:11:22;;;;;;;21.40;11.17;;;;;;;;;;4992371;28;20322;-69
2022/07/23 08:13:47;;;;;;;21.93;11.20;;;;;;;;;;4992246;28;20476;-69
2022/07/23 08:16:12;;;;;;;21.35;11.32;;;;;;;;;;4991002;28;20277;-68
2022/07/23 08:18:37;;;;;;;18.73;10.70;;;;;;;;;;4991733;28;20028;-70
2022/07/23 08:21:05;;;;;;;21.30;10.63;;;;;;;;;;4990301;28;20362;-70
2022/07/23 08:23:31;;;;;;;22.83;10.95;;;;;;;;;;4989664;28;20353;-69
2022/07/23 08:25:56;;;;;;;19.48;9.27;;;;;;;;;;4990284;28;20113;-70
2022/07/23 08:28:22;;;;;;;17.23;10.10;;;;;;;;;;4990973;28;20022;-70
2022/07/23 08:30:48;;;;;;;23.00;11.82;;;;;;;;;;4990925;28;20049;-70
2022/07/23 08:33:14;;;;;;;17.08;9.27;;;;;;;;;;4988757;28;20029;-70
2022/07/23 08:35:41;;;;;;;18.58;9.35;;;;;;;;;;4989563;28;20030;-70
2022/07/23 08:38:07;;;;;;;20.65;9.48;;;;;;;;;;4992653;28;20105;-70
2022/07/23 08:40:33;;;;;;;14.52;8.10;;;;;;;;;;4992007;28;20038;-70
2022/07/23 08:42:59;;;;;;;17.05;8.13;;;;;;;;;;4992076;28;20662;-70
2022/07/23 08:45:25;;;;;;;14.48;8.13;;;;;;;;;;4988278;28;20027;-70
2022/07/23 08:47:59;;;;;;;17.02;8.50;;;;;;;;;;4986846;28;20029;-70
2022/07/23 08:50:25;;;;;;;17.20;7.57;;;;;;;;;;4990401;28;20019;-70
2022/07/23 08:52:50;;;;;;;16.50;8.93;;;;;;;;;;4991057;28;20678;-70
2022/07/23 08:55:16;;;;;;;11.52;7.28;;;;;;;;;;4991134;28;20030;-70
2022/07/23 08:57:41;;;;;;;17.35;6.30;;;;;;;;;;4991155;28;20486;-70
2022/07/23 09:00:07;;;;;;;16.17;7.80;;;;;;;;;;4992034;28;20471;-70
2022/07/23 09:02:38;;;;;;;17.92;8.95;;;;;;;;;;4991949;28;20018;-70
2022/07/23 09:05:03;;;;;;;17.17;8.77;;;;;;;;;;4990571;28;20034;-70
2022/07/23 09:07:28;;;;;;;18.08;9.27;;;;;;;;;;4988883;28;20014;-70
2022/07/23 09:10:07;;;;;;;14.23;8.50;;;;;;;;;;4991640;28;20044;-70
2022/07/23 09:12:32;;;;;;;17.02;8.20;;;;;;;;;;4992036;28;20121;-70
2022/07/23 09:15:02;;;;;;;12.95;6.97;;;;;;;;;;4989597;28;20475;-70
2022/07/23 09:17:27;;;;;;;;;;;;;;;;;;4991169;28;20641;-70
2022/07/23 09:20:06;;;;;;;18.42;8.45;;;;;;;;;;4991762;28;20253;-70
2022/07/23 09:22:31;;;;;;;12.57;7.28;;;;;;;;;;4990827;28;20092;-70
2022/07/23 09:25:10;;;;;;;13.53;6.77;;;;;;;;;;4989898;28;20491;-70
2022/07/23 09:27:50;;;;;;;16.47;9.63;;;;;;;;;;4988442;28;20023;-70
2022/07/23 09:30:15;;;;;;;19.48;10.10;;;;;;;;;;4989904;28;20026;-69
2022/07/23 09:32:41;;;;;;;14.82;8.40;;;;;;;;;;4990014;28;20084;-69
2022/07/23 09:35:07;;;;;;;14.98;9.32;;;;;;;;;;4990781;28;20026;-70
2022/07/23 09:37:32;;;;;;;17.25;8.80;;;;;;;;;;4989520;28;20538;-69
2022/07/23 09:40:07;;;;;;;12.38;7.57;;;;;;;;;;4991358;28;20026;-69
2022/07/23 09:42:33;;;;;;;13.68;7.13;;;;;;;;;;4989624;28;20029;-69
2022/07/23 09:44:58;;;;;;;13.40;8.38;;;;;;;;;;4990255;28;20022;-70
2022/07/23 09:47:24;;;;;;;15.02;8.30;;;;;;;;;;4990998;28;20356;-70
2022/07/23 09:50:00;;;;;;;13.30;7.85;;;;;;;;;;4990389;28;20022;-70
2022/07/23 09:52:29;;;;;;;15.82;8.25;;;;;;;;;;4990261;28;20022;-70
2022/07/23 09:55:02;;;;;;;19.60;8.57;;;;;;;;;;4988244;28;20026;-70
2022/07/23 09:57:27;;;;;;;14.35;7.07;;;;;;;;;;4990879;28;20035;-70
2022/07/23 09:59:53;;;;;;;12.73;8.95;;;;;;;;;;4989617;28;20570;-70
2022/07/23 10:02:19;;;;;;;13.20;9.13;;;;;;;;;;4988836;28;20533;-70
2022/07/23 10:04:44;;;;;;;14.15;8.63;;;;;;;;;;4987052;28;20042;-70
2022/07/23 10:07:10;;;;;;;14.18;8.23;;;;;;;;;;4991247;28;20106;-70
2022/07/23 10:09:37;;;;;;;17.02;8.75;;;;;;;;;;4989003;28;20726;-70
2022/07/23 10:12:14;;;;;;;12.50;7.93;;;;;;;;;;4994068;28;20484;-70
2022/07/23 10:14:40;;;;;;;16.75;8.77;;;;;;;;;;4989822;28;20027;-70
2022/07/23 10:17:05;;;;;;;12.98;7.13;;;;;;;;;;4989773;28;20538;-70
2022/07/23 10:19:31;;;;;;;10.43;7.00;;;;;;;;;;4990122;28;20045;-70
2022/07/23 10:21:58;;;;;;;10.07;7.10;;;;;;;;;;4990930;28;20022;-70
2022/07/23 10:24:45;;;;;;;15.45;7.68;;;;;;;;;;4986490;28;20109;-70
2022/07/23 10:27:28;;;;;;;16.75;8.35;;;;;;;;;;4993965;23;20108;-68
2022/07/23 10:29:54;;;;;;;13.02;7.53;;;;;;;;;;4986460;28;20022;-67
2022/07/23 10:32:40;;;;;;;9.32;5.68;;;;;;;;;;4988149;28;20026;-66
2022/07/23 10:35:11;;;;;;;8.18;5.40;;;;;;;;;;4979327;28;20038;-67
2022/07/23 10:37:41;;;;;;;12.50;6.55;;;;;;;;;;4986525;28;20080;-67
2022/07/23 10:40:06;;;;;;;;;;;;;;;;;;4990093;28;20025;-66
2022/07/23 10:42:33;;;;;;;9.88;6.80;;;;;;;;;;4989842;28;20374;-67
2022/07/23 10:44:58;;;;;;;13.52;8.55;;;;;;;;;;4988977;28;20033;-67
2022/07/23 10:47:41;;;;;;;11.60;7.97;;;;;;;;;;4989535;28;20023;-67
2022/07/23 10:50:34;;;;;;;11.73;6.65;;;;;;;;;;4989029;28;20383;-67
2022/07/23 10:53:06;;;;;;;10.38;6.45;;;;;;;;;;4990202;28;20105;-67
2022/07/23 10:55:31;;;;;;;16.75;7.57;;;;;;;;;;4989128;28;20023;-67
2022/07/23 10:57:56;;;;;;;11.70;6.80;;;;;;;;;;4989403;28;20038;-68
2022/07/23 11:00:22;;;;;;;12.88;6.95;;;;;;;;;;4990224;28;20105;-68
2022/07/23 11:02:49;;;;;;;9.93;6.75;;;;;;;;;;4989574;28;20034;-68
2022/07/23 11:05:22;;;;;;;13.07;7.13;;;;;;;;;;4981289;28;20026;-68
2022/07/23 11:08:07;;;;;;;9.07;6.03;;;;;;;;;;4986827;28;20382;-68
2022/07/23 11:10:32;;;;;;;9.18;4.78;;;;;;;;;;4986694;28;20085;-68
2022/07/23 11:13:17;;;;;;;6.90;4.10;;;;;;;;;;4991084;28;20022;-68
2022/07/23 11:16:10;;;;;;;10.07;5.78;;;;;;;;;;4992130;28;20285;-68
2022/07/23 11:18:39;;;;;;;10.60;6.00;;;;;;;;;;4991906;28;20070;-68
2022/07/23 11:21:23;;;;;;;9.30;5.90;;;;;;;;;;4992280;28;20053;-68
2022/07/23 11:23:57;;;;;;;13.77;5.20;;;;;;;;;;4993010;28;20021;-68
2022/07/23 11:26:47;;;;;;;8.75;4.65;;;;;;;;;;4986023;28;20030;-68
2022/07/23 11:29:37;;;;;;;7.78;4.70;;;;;;;;;;4992733;28;20115;-68
2022/07/23 11:32:04;;;;;;;8.05;5.75;;;;;;;;;;4992875;28;20014;-68
2022/07/23 11:34:38;;;;;;;11.23;5.35;;;;;;;;;;4994069;28;20054;-68
2022/07/23 11:37:04;;;;;;;9.07;6.22;;;;;;;;;;4991276;28;20018;-68
2022/07/23 11:39:30;;;;;;;7.50;4.32;;;;;;;;;;4993225;28;20090;-68
2022/07/23 11:41:55;;;;;;;9.18;4.32;;;;;;;;;;4992989;28;20026;-68
2022/07/23 11:44:25;;;;;;;8.77;4.07;;;;;;;;;;4993296;28;20022;-68
2022/07/23 11:47:03;;;;;;;6.55;3.97;;;;;;;;;;4988333;28;20019;-68
2022/07/23 11:49:28;;;;;;;6.60;4.30;;;;;;;;;;4993068;28;20554;-68
2022/07/23 11:52:03;;;;;;;7.93;4.57;;;;;;;;;;4992488;28;20109;-68
2022/07/23 11:54:28;;;;;;;9.02;4.88;;;;;;;;;;4991737;28;20387;-68
2022/07/23 11:56:57;;;;;;;8.87;5.07;;;;;;;;;;4991514;28;20022;-68
2022/07/23 11:59:24;;;;;;;9.43;4.30;;;;;;;;;;4992584;28;20030;-68
2022/07/23 12:01:59;;;;;;;5.60;3.50;;;;;;;;;;4992255;28;20050;-68
2022/07/23 12:04:38;;;;;;;11.63;4.70;;;;;;;;;;4992823;28;20030;-68
2022/07/23 12:07:03;;;;;;;8.57;4.70;;;;;;;;;;4989893;28;20349;-68
2022/07/23 12:09:28;;;;;;;9.50;4.68;;;;;;;;;;4992524;28;20018;-68
2022/07/23 12:12:00;;;;;;;9.00;4.28;;;;;;;;;;4991923;28;20383;-68
2022/07/23 12:14:25;;;;;;;8.10;5.22;;;;;;;;;;4993104;28;20062;-68
2022/07/23 12:17:06;;;;;;;9.52;5.82;;;;;;;;;;4991388;28;20407;-68
2022/07/23 12:19:32;;;;;;;7.38;5.40;;;;;;;;;;4992083;28;20041;-68
2022/07/23 12:21:57;;;;;;;12.63;5.90;;;;;;;;;;4992370;28;20026;-68
2022/07/23 12:24:22;;;;;;;9.10;6.40;;;;;;;;;;4992253;28;20041;-68
2022/07/23 12:27:06;;;;;;;11.07;7.03;;;;;;;;;;4990496;28;20030;-68
2022/07/23 12:29:35;;;;;;;11.65;5.63;;;;;;;;;;4988630;28;20249;-68
2022/07/23 12:32:00;;;;;;;11.82;5.97;;;;;;;;;;4990707;28;20041;-68
2022/07/23 12:34:26;;;;;;;16.13;5.77;;;;;;;;;;4992494;28;20498;-68
2022/07/23 12:36:51;;;;;;;12.90;7.27;;;;;;;;;;4989683;28;20113;-68
2022/07/23 12:39:29;;;;;;;9.13;5.33;;;;;;;;;;4991377;28;20273;-68
2022/07/23 12:41:54;;;;;;;15.25;6.70;;;;;;;;;;4991536;28;20049;-68
2022/07/23 12:44:20;;;;;;;12.85;6.70;;;;;;;;;;4992158;28;20034;-68
2022/07/23 12:46:49;;;;;;;16.17;7.45;;;;;;;;;;4989851;28;20257;-68
2022/07/23 12:49:24;;;;;;;10.57;7.90;;;;;;;;;;4992822;28;20022;-68
2022/07/23 12:51:49;;;;;;;12.18;6.88;;;;;;;;;;4991196;28;20027;-68
2022/07/23 12:54:15;;;;;;;13.23;7.30;;;;;;;;;;4992029;28;20022;-68
2022/07/23 12:56:44;;;;;;;13.88;6.40;;;;;;;;;;4990240;28;20026;-67
2022/07/23 12:59:10;;;;;;;15.38;6.10;;;;;;;;;;4990473;28;20018;-68
2022/07/23 13:01:40;;;;;;;11.20;6.90;;;;;;;;;;4991213;28;20426;-68
2022/07/23 13:04:05;;;;;;;24.60;7.50;;;;;;;;;;4990752;28;20114;-68
2022/07/23 13:06:34;;;;;;;11.57;6.73;;;;;;;;;;4989831;28;20105;-67
2022/07/23 13:09:00;;;;;;;14.27;6.18;;;;;;;;;;4990872;28;20105;-67
2022/07/23 13:11:25;;;;;;;11.20;6.07;;;;;;;;;;4991801;28;20050;-67
2022/07/23 13:13:51;;;;;;;10.37;6.40;;;;;;;;;;4992052;28;20026;-67
2022/07/23 13:16:16;;;;;;;10.82;6.10;;;;;;;;;;4988078;28;20022;-67
2022/07/23 13:18:41;;;;;;;8.47;5.30;;;;;;;;;;4990910;28;20027;-67
2022/07/23 13:21:07;;;;;;;11.27;5.28;;;;;;;;;;4989790;28;20081;-67
2022/07/23 13:23:32;;;;;;;12.48;4.65;;;;;;;;;;4991284;28;20030;-67
2022/07/23 13:25:57;;;;;;;7.43;4.63;;;;;;;;;;4990262;28;20026;-68
2022/07/23 13:28:23;;;;;;;8.83;4.10;;;;;;;;;;4989612;28;20034;-68
2022/07/23 13:30:49;;;;;;;7.07;4.25;;;;;;;;;;4991507;28;20111;-68
2022/07/23 13:33:15;;;;;;;8.85;4.65;;;;;;;;;;4990713;28;20017;-68
2022/07/23 13:35:40;;;;;;;7.22;4.53;;;;;;;;;;4988752;28;20022;-68
2022/07/23 13:38:07;;;;;;;6.43;3.42;;;;;;;;;;4988059;28;20022;-68
2022/07/23 13:40:33;;;;;;;5.88;3.33;;;;;;;;;;4990050;28;20423;-68
2022/07/23 13:42:58;;;;;;;9.80;3.58;;;;;;;;;;4990168;28;20026;-67
2022/07/23 13:45:23;;;;;;;6.63;3.50;;;;;;;;;;4988100;28;20379;-68
2022/07/23 13:47:48;;;;;;;7.40;3.75;;;;;;;;;;4989675;28;20093;-68
2022/07/23 13:50:15;;;;;;;9.37;4.10;;;;;;;;;;4984012;28;20521;-68
2022/07/23 13:52:41;;;;;;;6.05;3.28;;;;;;;;;;4990543;28;20054;-67
2022/07/23 13:55:07;;;;;;;8.75;3.50;;;;;;;;;;4990251;28;20018;-67
2022/07/23 13:57:32;;;;;;;8.07;3.28;;;;;;;;;;4992365;28;20598;-67
2022/07/23 13:59:58;;;;;;;7.90;3.83;;;;;;;;;;4989312;28;20100;-67
2022/07/23 14:02:23;;;;;;;10.40;3.90;;;;;;;;;;4989554;28;20030;-67
2022/07/23 14:04:48;;;;;;;7.90;3.70;;;;;;;;;;4989934;28;20501;-68
2022/07/23 14:07:13;;;;;;;9.80;3.90;;;;;;;;;;4989886;28;20033;-67
2022/07/23 14:09:39;;;;;;;8.60;3.60;;;;;;;;;;4991856;28;20033;-67
2022/07/23 14:12:04;;;;;;;10.98;3.35;;;;;;;;;;4990735;28;20470;-67
2022/07/23 14:14:29;;;;;;;7.22;3.72;;;;;;;;;;4990507;28;20018;-67
2022/07/23 14:16:55;;;;;;;6.23;3.03;;;;;;;;;;4990677;28;20493;-67
2022/07/23 14:19:20;;;;;;;6.18;3.58;;;;;;;;;;4988353;28;20019;-67
2022/07/23 14:21:48;;;;;;;8.00;4.25;;;;;;;;;;4990701;28;20053;-67
2022/07/23 14:24:13;;;;;;;8.07;3.10;;;;;;;;;;4981864;28;20097;-67
2022/07/23 14:26:38;;;;;;;8.13;3.10;;;;;;;;;;4986575;28;20022;-67
2022/07/23 14:29:03;;;;;;;8.90;3.40;;;;;;;;;;4988262;28;20019;-67